Time,TemperatureF,DewpointF,PressureIn,WindDirection,WindDirectionDegrees,WindSpeedMPH,WindSpeedGustMPH,Humidity,HourlyPrecipIn,Conditions,Clouds,dailyrainin,SoftwareType,DateUTC
2013-07-01 00:01:00,69.0,51.0,-100.00,North,0,4.0,9.0,53,-99.99,,,-99.99,,2013-07-01 05:01:00,
2013-07-01 00:11:00,67.0,51.0,-100.00,North,0,0.0,6.0,56,-99.99,,,-99.99,,2013-07-01 05:11:00,
2013-07-01 00:22:00,67.0,51.0,-100.00,North,0,0.0,6.0,56,-99.99,,,-99.99,,2013-07-01 05:22:00,
2013-07-01 00:42:00,66.0,50.0,-100.00,NE,50,0.0,1.0,58,-99.99,,,-99.99,,2013-07-01 05:42:00,
2013-07-01 00:52:00,66.0,50.0,-100.00,NE,50,0.0,1.0,58,-99.99,,,-99.99,,2013-07-01 05:52:00,
2013-07-01 01:12:00,62.0,52.0,-100.00,North,0,0.0,0.0,69,-99.99,,,-99.99,,2013-07-01 06:12:00,
2013-07-01 01:24:00,62.0,52.0,-100.00,North,0,0.0,0.0,69,-99.99,,,-99.99,,2013-07-01 06:24:00,
2013-07-01 01:43:00,63.0,52.0,-100.00,NNW,345,0.0,0.0,67,-99.99,,,-99.99,,2013-07-01 06:43:00,
2013-07-01 01:53:00,63.0,52.0,-100.00,NNW,345,0.0,0.0,67,-99.99,,,-99.99,,2013-07-01 06:53:00,
2013-07-01 02:11:00,61.0,52.0,-100.00,WSW,245,0.0,0.0,74,-99.99,,,-99.99,,2013-07-01 07:11:00,
2013-07-01 02:22:00,61.0,52.0,-100.00,WSW,245,0.0,0.0,74,-99.99,,,-99.99,,2013-07-01 07:22:00,
2013-07-01 02:43:00,60.0,53.0,-100.00,WNW,295,0.0,0.0,78,-99.99,,,-99.99,,2013-07-01 07:43:00,
2013-07-01 02:53:00,60.0,53.0,-100.00,WNW,295,0.0,0.0,78,-99.99,,,-99.99,,2013-07-01 07:53:00,
2013-07-01 03:11:00,60.0,54.0,-100.00,North,10,0.0,0.0,81,-99.99,,,-99.99,,2013-07-01 08:11:00,
2013-07-01 03:22:00,60.0,54.0,-100.00,North,10,0.0,0.0,81,-99.99,,,-99.99,,2013-07-01 08:22:00,
2013-07-01 03:42:00,59.0,53.0,-100.00,North,355,0.0,0.0,80,-99.99,,,-99.99,,2013-07-01 08:42:00,
2013-07-01 03:52:00,59.0,53.0,-100.00,North,355,0.0,0.0,80,-99.99,,,-99.99,,2013-07-01 08:52:00,
2013-07-01 04:11:00,61.0,52.0,-100.00,North,5,0.0,5.0,74,-99.99,,,-99.99,,2013-07-01 09:11:00,
2013-07-01 04:22:00,61.0,52.0,-100.00,North,5,0.0,5.0,74,-99.99,,,-99.99,,2013-07-01 09:22:00,
2013-07-01 04:53:00,60.0,52.0,-100.00,NNW,335,0.0,3.0,77,-99.99,,,-99.99,,2013-07-01 09:53:00,
2013-07-01 05:22:00,60.0,52.0,-100.00,West,280,0.0,4.0,77,-99.99,,,-99.99,,2013-07-01 10:22:00,
2013-07-01 05:42:00,59.0,53.0,-100.00,WSW,245,0.0,4.0,79,-99.99,,,-99.99,,2013-07-01 10:42:00,
2013-07-01 05:52:00,59.0,53.0,-100.00,WSW,245,0.0,4.0,79,-99.99,,,-99.99,,2013-07-01 10:52:00,
2013-07-01 06:11:00,58.0,54.0,-100.00,WNW,300,0.0,2.0,87,-99.99,,,-99.99,,2013-07-01 11:11:00,
2013-07-01 06:22:00,58.0,54.0,-100.00,WNW,300,0.0,2.0,87,-99.99,,,-99.99,,2013-07-01 11:22:00,
2013-07-01 06:43:00,60.0,54.0,-100.00,North,0,0.0,3.0,80,-99.99,,,-99.99,,2013-07-01 11:43:00,
2013-07-01 06:52:00,60.0,54.0,-100.00,North,0,0.0,3.0,80,-99.99,,,-99.99,,2013-07-01 11:52:00,
2013-07-01 07:11:00,62.0,52.0,-100.00,North,10,1.0,5.0,69,-99.99,,,-99.99,,2013-07-01 12:11:00,
2013-07-01 07:22:00,62.0,52.0,-100.00,North,10,1.0,5.0,69,-99.99,,,-99.99,,2013-07-01 12:22:00,
2013-07-01 07:33:00,63.0,52.0,-100.00,North,0,2.0,9.0,68,-99.99,,,-99.99,,2013-07-01 12:33:00,
2013-07-01 07:43:00,64.0,53.0,-100.00,NNW,335,0.0,7.0,68,-99.99,,,-99.99,,2013-07-01 12:43:00,
2013-07-01 07:53:00,64.0,53.0,-100.00,NNW,335,0.0,7.0,68,-99.99,,,-99.99,,2013-07-01 12:53:00,
2013-07-01 08:23:00,66.0,53.0,-100.00,North,0,1.0,10.0,62,-99.99,,,-99.99,,2013-07-01 13:23:00,
2013-07-01 08:43:00,67.0,51.0,-100.00,North,0,6.0,15.0,56,-99.99,,,-99.99,,2013-07-01 13:43:00,
2013-07-01 08:53:00,67.0,51.0,-100.00,North,0,6.0,15.0,56,-99.99,,,-99.99,,2013-07-01 13:53:00,
2013-07-01 09:11:00,68.0,51.0,-100.00,North,5,4.0,11.0,55,-99.99,,,-99.99,,2013-07-01 14:11:00,
2013-07-01 09:22:00,68.0,51.0,-100.00,North,5,4.0,11.0,55,-99.99,,,-99.99,,2013-07-01 14:22:00,
2013-07-01 09:43:00,69.0,53.0,-100.00,North,5,5.0,11.0,56,-99.99,,,-99.99,,2013-07-01 14:43:00,
2013-07-01 09:53:00,69.0,53.0,-100.00,North,5,5.0,11.0,56,-99.99,,,-99.99,,2013-07-01 14:53:00,
2013-07-01 10:11:00,70.0,53.0,-100.00,North,0,4.0,11.0,54,-99.99,,,-99.99,,2013-07-01 15:11:00,
2013-07-01 10:23:00,70.0,53.0,-100.00,North,0,4.0,11.0,54,-99.99,,,-99.99,,2013-07-01 15:23:00,
2013-07-01 10:43:00,72.0,53.0,-100.00,North,0,5.0,12.0,52,-99.99,,,-99.99,,2013-07-01 15:43:00,
2013-07-01 10:53:00,72.0,53.0,-100.00,North,0,5.0,12.0,52,-99.99,,,-99.99,,2013-07-01 15:53:00,
2013-07-01 11:11:00,74.0,52.0,-100.00,NNE,15,6.0,13.0,46,-99.99,,,-99.99,,2013-07-01 16:11:00,
2013-07-01 11:22:00,74.0,52.0,-100.00,NNE,15,6.0,13.0,46,-99.99,,,-99.99,,2013-07-01 16:22:00,
2013-07-01 11:33:00,74.0,54.0,-100.00,North,0,5.0,18.0,50,-99.99,,,-99.99,,2013-07-01 16:33:00,
2013-07-01 11:44:00,74.0,52.0,-100.00,NNE,25,4.0,14.0,45,-99.99,,,-99.99,,2013-07-01 16:44:00,
2013-07-01 11:53:00,74.0,52.0,-100.00,NNE,25,4.0,14.0,45,-99.99,,,-99.99,,2013-07-01 16:53:00,
2013-07-01 12:12:00,76.0,54.0,-100.00,NNW,335,6.0,15.0,47,-99.99,,,-99.99,,2013-07-01 17:12:00,
2013-07-01 12:23:00,76.0,54.0,-100.00,NNW,335,6.0,15.0,47,-99.99,,,-99.99,,2013-07-01 17:23:00,
2013-07-01 12:34:00,76.0,54.0,-100.00,NNW,335,6.0,15.0,47,-99.99,,,-99.99,,2013-07-01 17:34:00,
2013-07-01 12:43:00,76.0,53.0,-100.00,North,355,5.0,16.0,44,-99.99,,,-99.99,,2013-07-01 17:43:00,
2013-07-01 12:53:00,76.0,53.0,-100.00,North,355,5.0,16.0,44,-99.99,,,-99.99,,2013-07-01 17:53:00,
2013-07-01 13:22:00,77.0,50.0,-100.00,North,355,11.0,19.0,39,-99.99,,,-99.99,,2013-07-01 18:22:00,
2013-07-01 13:43:00,77.0,49.0,-100.00,North,0,7.0,19.0,38,-99.99,,,-99.99,,2013-07-01 18:43:00,
2013-07-01 13:53:00,77.0,49.0,-100.00,North,0,7.0,19.0,38,-99.99,,,-99.99,,2013-07-01 18:53:00,
2013-07-01 14:22:00,79.0,52.0,-100.00,North,0,8.0,14.0,39,-99.99,,,-99.99,,2013-07-01 19:22:00,
2013-07-01 14:44:00,78.0,51.0,-100.00,North,10,8.0,22.0,39,-99.99,,,-99.99,,2013-07-01 19:44:00,
2013-07-01 14:53:00,78.0,51.0,-100.00,North,10,8.0,22.0,39,-99.99,,,-99.99,,2013-07-01 19:53:00,
2013-07-01 15:22:00,78.0,50.0,-100.00,North,350,10.0,21.0,38,-99.99,,,-99.99,,2013-07-01 20:22:00,
2013-07-01 15:43:00,78.0,52.0,-100.00,North,0,7.0,19.0,40,-99.99,,,-99.99,,2013-07-01 20:43:00,
2013-07-01 15:52:00,78.0,52.0,-100.00,North,0,7.0,19.0,40,-99.99,,,-99.99,,2013-07-01 20:52:00,
2013-07-01 16:11:00,78.0,51.0,-100.00,North,0,8.0,14.0,39,-99.99,,,-99.99,,2013-07-01 21:11:00,
2013-07-01 16:24:00,78.0,51.0,-100.00,North,0,8.0,14.0,39,-99.99,,,-99.99,,2013-07-01 21:24:00,
2013-07-01 16:53:00,78.0,51.0,-100.00,North,0,5.0,19.0,40,-99.99,,,-99.99,,2013-07-01 21:53:00,
2013-07-01 17:11:00,78.0,50.0,-100.00,NNE,20,6.0,16.0,38,-99.99,,,-99.99,,2013-07-01 22:11:00,
2013-07-01 17:24:00,78.0,50.0,-100.00,NNE,20,6.0,16.0,38,-99.99,,,-99.99,,2013-07-01 22:24:00,
2013-07-01 17:43:00,78.0,50.0,-100.00,North,0,9.0,19.0,38,-99.99,,,-99.99,,2013-07-01 22:43:00,
2013-07-01 17:53:00,78.0,50.0,-100.00,North,0,9.0,19.0,38,-99.99,,,-99.99,,2013-07-01 22:53:00,
2013-07-01 18:11:00,78.0,51.0,-100.00,North,5,9.0,17.0,39,-99.99,,,-99.99,,2013-07-01 23:11:00,
2013-07-01 18:22:00,78.0,51.0,-100.00,North,5,9.0,17.0,39,-99.99,,,-99.99,,2013-07-01 23:22:00,
2013-07-01 18:44:00,77.0,50.0,-100.00,NNE,15,4.0,14.0,39,-99.99,,,-99.99,,2013-07-01 23:44:00,
2013-07-01 18:53:00,77.0,50.0,-100.00,NNE,15,4.0,14.0,39,-99.99,,,-99.99,,2013-07-01 23:53:00,
2013-07-01 19:22:00,77.0,53.0,-100.00,NNE,15,1.0,14.0,43,-99.99,,,-99.99,,2013-07-02 00:22:00,
2013-07-01 19:34:00,77.0,53.0,-100.00,NNE,15,1.0,14.0,43,-99.99,,,-99.99,,2013-07-02 00:34:00,
2013-07-01 19:53:00,76.0,51.0,-100.00,NNW,345,6.0,14.0,41,-99.99,,,-99.99,,2013-07-02 00:53:00,
2013-07-01 20:22:00,76.0,51.0,-100.00,NNW,335,2.0,7.0,42,-99.99,,,-99.99,,2013-07-02 01:22:00,
2013-07-01 20:43:00,74.0,51.0,-100.00,NW,310,1.0,7.0,44,-99.99,,,-99.99,,2013-07-02 01:43:00,
2013-07-01 20:53:00,74.0,51.0,-100.00,NW,310,1.0,7.0,44,-99.99,,,-99.99,,2013-07-02 01:53:00,
2013-07-01 21:12:00,72.0,50.0,-100.00,East,85,0.0,1.0,47,-99.99,,,-99.99,,2013-07-02 02:12:00,
2013-07-01 21:22:00,72.0,50.0,-100.00,East,85,0.0,1.0,47,-99.99,,,-99.99,,2013-07-02 02:22:00,
2013-07-01 21:33:00,71.0,51.0,-100.00,East,95,0.0,0.0,49,-99.99,,,-99.99,,2013-07-02 02:33:00,
2013-07-01 21:43:00,70.0,51.0,-100.00,NE,40,0.0,0.0,50,-99.99,,,-99.99,,2013-07-02 02:43:00,
2013-07-01 21:53:00,70.0,51.0,-100.00,NE,40,0.0,0.0,50,-99.99,,,-99.99,,2013-07-02 02:53:00,
2013-07-01 22:24:00,69.0,51.0,-100.00,East,95,0.0,0.0,53,-99.99,,,-99.99,,2013-07-02 03:24:00,
2013-07-01 22:43:00,67.0,51.0,-100.00,East,95,0.0,0.0,57,-99.99,,,-99.99,,2013-07-02 03:43:00,
2013-07-01 22:53:00,67.0,51.0,-100.00,East,95,0.0,0.0,57,-99.99,,,-99.99,,2013-07-02 03:53:00,
2013-07-01 23:02:00,66.0,51.0,-100.00,NNE,30,0.0,0.0,59,-99.99,,,-99.99,,2013-07-02 04:02:00,
2013-07-01 23:11:00,66.0,51.0,-100.00,ENE,65,0.0,0.0,59,-99.99,,,-99.99,,2013-07-02 04:11:00,
2013-07-01 23:22:00,66.0,51.0,-100.00,ENE,65,0.0,0.0,59,-99.99,,,-99.99,,2013-07-02 04:22:00,
2013-07-01 23:32:00,67.0,52.0,-100.00,NE,55,0.0,0.0,59,-99.99,,,-99.99,,2013-07-02 04:32:00,
2013-07-01 23:42:00,66.0,53.0,-100.00,NE,50,0.0,0.0,62,-99.99,,,-99.99,,2013-07-02 04:42:00,
2013-07-01 23:54:00,66.0,53.0,-100.00,NE,50,0.0,0.0,62,-99.99,,,-99.99,,2013-07-02 04:54:00,